createdAt,value
2019-04-25T00:01:56.199Z,99.03
2019-04-25T00:04:28.156Z,92.57
2019-04-25T00:06:59.261Z,97.80
2019-04-25T00:09:33.309Z,93.30
2019-04-25T00:12:05.150Z,101.90
2019-04-25T00:14:36.202Z,108.97
2019-04-25T00:17:07.747Z,112.60
2019-04-25T00:19:40.233Z,119.57
2019-04-25T00:22:31.723Z,110.17
2019-04-25T00:25:18.004Z,104.83
2019-04-25T00:27:49.273Z,94.03
2019-04-25T00:30:22.637Z,90.95
2019-04-25T00:32:54.227Z,106.37
2019-04-25T00:35:25.686Z,91.35
2019-04-25T00:37:57.435Z,95.70
2019-04-25T00:40:28.755Z,87.82
2019-04-25T00:43:01.578Z,79.95
2019-04-25T00:45:33.669Z,74.30
2019-04-25T00:48:05.343Z,77.55
2019-04-25T00:50:37.655Z,62.67
2019-04-25T00:53:08.707Z,77.45
2019-04-25T00:55:41.428Z,75.47
2019-04-25T00:58:14.694Z,69.10
2019-04-25T01:00:51.107Z,75.57
2019-04-25T01:03:24.204Z,70.60
2019-04-25T01:05:55.667Z,63.95
2019-04-25T01:08:27.227Z,67.80
2019-04-25T01:10:58.875Z,70.35
2019-04-25T01:13:30.124Z,51.13
2019-04-25T01:16:03.831Z,56.13
2019-04-25T01:18:35.448Z,56.98
2019-04-25T01:21:07.748Z,56.15
2019-04-25T01:23:38.892Z,60.75
2019-04-25T01:26:10.352Z,66.20
2019-04-25T01:28:41.591Z,59.20
2019-04-25T01:31:14.877Z,55.45
2019-04-25T01:33:46.771Z,59.53
2019-04-25T01:36:25.873Z,57.58
2019-04-25T01:39:11.144Z,49.95
2019-04-25T01:41:44.215Z,53.28
2019-04-25T01:44:24.145Z,49.63
2019-04-25T01:46:56.470Z,57.13
2019-04-25T01:49:27.636Z,51.33
2019-04-25T01:51:59.466Z,50.90
2019-04-25T01:54:31.108Z,59.33
2019-04-25T01:57:04.175Z,41.77
2019-04-25T01:59:35.748Z,52.25
2019-04-25T02:02:08.631Z,51.50
2019-04-25T02:04:40.079Z,49.73
2019-04-25T02:07:11.426Z,61.77
2019-04-25T02:09:43.571Z,57.80
2019-04-25T02:12:16.336Z,50.60
2019-04-25T02:14:47.927Z,61.05
2019-04-25T02:17:19.787Z,55.45
2019-04-25T02:19:52.029Z,61.35
2019-04-25T02:22:24.328Z,68.97
2019-04-25T02:24:56.855Z,67.92
2019-04-25T02:27:28.209Z,56.60
2019-04-25T02:30:00.935Z,50.88
2019-04-25T02:32:34.457Z,57.78
2019-04-25T02:35:09.523Z,63.15
2019-04-25T02:37:40.098Z,61.42
2019-04-25T02:40:11.276Z,61.77
2019-04-25T02:42:44.227Z,62.60
2019-04-25T02:45:34.258Z,59.73
2019-04-25T02:48:19.704Z,59.13
2019-04-25T02:50:54.097Z,64.25
2019-04-25T02:53:36.392Z,62.88
2019-04-25T02:56:25.732Z,68.85
2019-04-25T02:58:39.022Z,63.65
2019-04-25T03:01:21.275Z,56.28
2019-04-25T03:03:45.131Z,60.00
2019-04-25T03:06:16.230Z,54.77
2019-04-25T03:08:47.794Z,52.98
2019-04-25T03:11:20.674Z,45.65
2019-04-25T03:13:54.364Z,56.15
2019-04-25T03:16:25.268Z,46.48
2019-04-25T03:19:00.436Z,41.98
2019-04-25T03:21:36.393Z,49.03
2019-04-25T03:24:10.266Z,49.98
2019-04-25T03:26:41.959Z,54.90
2019-04-25T03:29:13.751Z,49.63
2019-04-25T03:31:45.262Z,49.73
2019-04-25T03:34:20.293Z,45.38
2019-04-25T03:36:49.332Z,47.78
2019-04-25T03:39:20.750Z,55.10
2019-04-25T03:41:51.882Z,53.95
2019-04-25T03:44:23.676Z,57.55
2019-04-25T03:46:56.221Z,45.48
2019-04-25T03:49:27.780Z,48.73
2019-04-25T03:51:59.364Z,42.48
2019-04-25T03:54:30.727Z,50.35
2019-04-25T03:57:04.725Z,53.78
2019-04-25T03:59:35.419Z,64.87
2019-04-25T04:02:08.193Z,53.15
2019-04-25T04:04:39.946Z,58.10
2019-04-25T04:07:12.733Z,62.55
2019-04-25T04:09:44.692Z,74.10
2019-04-25T04:12:17.188Z,64.40
2019-04-25T04:14:49.947Z,69.00
2019-04-25T04:17:25.724Z,68.97
2019-04-25T04:19:58.886Z,64.62
2019-04-25T04:22:32.083Z,74.70
2019-04-25T04:25:05.921Z,66.22
2019-04-25T04:27:37.206Z,60.40
2019-04-25T04:30:08.786Z,64.95
2019-04-25T04:32:40.061Z,59.10
2019-04-25T04:35:11.478Z,58.63
2019-04-25T04:37:43.230Z,55.73
2019-04-25T04:40:18.255Z,60.67
2019-04-25T04:42:50.993Z,68.60
2019-04-25T04:45:24.325Z,62.60
2019-04-25T04:47:55.957Z,68.47
2019-04-25T04:50:27.145Z,62.35
2019-04-25T04:52:58.778Z,62.15
2019-04-25T04:55:30.175Z,53.35
2019-04-25T04:58:01.553Z,58.68
2019-04-25T05:00:33.839Z,48.52
2019-04-25T05:03:16.994Z,38.13
2019-04-25T05:05:55.137Z,49.55
2019-04-25T05:08:30.875Z,32.28
2019-04-25T05:11:01.912Z,35.88
2019-04-25T05:13:34.311Z,40.58
2019-04-25T05:16:07.039Z,38.30
2019-04-25T05:18:40.079Z,31.42
2019-04-25T05:21:15.727Z,32.05
2019-04-25T05:23:50.708Z,32.23
2019-04-25T05:26:25.025Z,38.38
2019-04-25T05:29:00.095Z,42.93
2019-04-25T05:31:34.182Z,43.20
2019-04-25T05:34:05.673Z,36.60
2019-04-25T05:36:40.032Z,36.98
2019-04-25T05:39:11.689Z,41.08
2019-04-25T05:41:47.793Z,41.15
2019-04-25T05:44:19.391Z,35.92
2019-04-25T05:46:50.997Z,49.40
2019-04-25T05:49:24.260Z,46.18
2019-04-25T05:51:57.056Z,46.37
2019-04-25T05:54:28.481Z,33.88
2019-04-25T05:57:03.728Z,45.33
2019-04-25T05:59:36.915Z,36.65
2019-04-25T06:02:09.195Z,49.25
2019-04-25T06:04:40.729Z,41.23
2019-04-25T06:07:14.367Z,34.73
2019-04-25T06:09:47.523Z,34.70
2019-04-25T06:12:37.403Z,49.27
2019-04-25T06:15:09.064Z,48.40
2019-04-25T06:17:44.808Z,46.75
2019-04-25T06:20:18.000Z,41.13
2019-04-25T06:23:03.306Z,46.35
2019-04-25T06:25:39.466Z,47.13
2019-04-25T06:28:17.875Z,49.33
2019-04-25T06:30:49.400Z,42.80
2019-04-25T06:33:21.301Z,49.80
2019-04-25T06:35:52.633Z,50.45
2019-04-25T06:38:26.856Z,48.80
2019-04-25T06:40:57.347Z,51.15
2019-04-25T06:43:28.600Z,51.45
2019-04-25T06:46:14.058Z,48.45
2019-04-25T06:48:47.305Z,38.95
2019-04-25T06:51:19.074Z,40.73
2019-04-25T06:53:51.379Z,45.65
2019-04-25T06:56:25.259Z,53.40
2019-04-25T06:58:57.967Z,40.45
2019-04-25T07:01:30.448Z,43.85
2019-04-25T07:04:01.933Z,46.88
2019-04-25T07:06:33.857Z,49.65
2019-04-25T07:09:09.784Z,41.83
2019-04-25T07:11:44.241Z,57.38
2019-04-25T07:14:18.424Z,47.90
2019-04-25T07:16:50.625Z,46.70
2019-04-25T07:19:24.768Z,39.10
2019-04-25T07:21:55.082Z,43.35
2019-04-25T07:24:27.250Z,41.55
2019-04-25T07:27:03.825Z,39.53
2019-04-25T07:29:48.766Z,42.20
2019-04-25T07:32:29.630Z,41.70
2019-04-25T07:34:57.300Z,43.58
2019-04-25T07:37:29.736Z,45.12
2019-04-25T07:40:00.977Z,40.15
2019-04-25T07:42:34.306Z,48.78
2019-04-25T07:45:08.756Z,43.52
2019-04-25T07:47:39.929Z,48.33
2019-04-25T07:50:11.314Z,40.83
2019-04-25T07:52:44.181Z,43.02
2019-04-25T07:55:16.676Z,37.83
2019-04-25T07:57:48.027Z,46.33
2019-04-25T08:00:19.779Z,49.98
2019-04-25T08:02:50.829Z,36.30
2019-04-25T08:05:24.071Z,38.17
2019-04-25T08:07:56.206Z,38.43
2019-04-25T08:10:27.987Z,44.30
2019-04-25T08:12:59.281Z,41.10
2019-04-25T08:15:33.521Z,45.60
2019-04-25T08:18:06.620Z,45.00
2019-04-25T08:20:37.829Z,38.67
2019-04-25T08:23:10.404Z,52.10
2019-04-25T08:25:43.270Z,43.00
2019-04-25T08:28:14.530Z,42.40
2019-04-25T08:30:45.888Z,43.40
2019-04-25T08:33:17.125Z,48.60
2019-04-25T08:36:03.435Z,43.38
2019-04-25T08:38:21.462Z,32.93
2019-04-25T08:40:54.221Z,34.92
2019-04-25T08:43:25.899Z,40.28
2019-04-25T08:45:57.052Z,34.48
2019-04-25T08:48:30.442Z,31.12
2019-04-25T08:51:07.110Z,33.55
2019-04-25T08:53:40.943Z,34.70
2019-04-25T08:56:20.157Z,32.57
2019-04-25T08:59:08.497Z,35.35
2019-04-25T09:01:45.203Z,34.65
2019-04-25T09:04:18.298Z,31.52
2019-04-25T09:06:50.000Z,33.78
2019-04-25T09:09:21.662Z,33.88
2019-04-25T09:11:54.355Z,28.83
2019-04-25T09:14:26.204Z,36.73
2019-04-25T09:16:57.611Z,41.37
2019-04-25T09:19:29.314Z,40.23
2019-04-25T09:22:00.574Z,35.48
2019-04-25T09:24:32.203Z,35.60
2019-04-25T09:27:03.797Z,36.17
2019-04-25T09:29:35.701Z,34.83
2019-04-25T09:32:08.189Z,33.80
2019-04-25T09:34:39.959Z,31.57
2019-04-25T09:37:11.301Z,36.35
2019-04-25T09:39:44.375Z,32.23
2019-04-25T09:42:16.380Z,33.18
2019-04-25T09:45:04.497Z,38.95
2019-04-25T09:47:37.153Z,30.30
2019-04-25T09:50:13.904Z,40.63
2019-04-25T09:52:47.090Z,34.92
2019-04-25T09:55:25.907Z,24.50
2019-04-25T09:58:04.085Z,28.40
2019-04-25T10:00:38.099Z,25.12
2019-04-25T10:03:09.630Z,34.10
2019-04-25T10:05:40.973Z,37.95
2019-04-25T10:08:13.453Z,24.20
2019-04-25T10:10:44.736Z,27.45
2019-04-25T10:13:16.199Z,23.12
2019-04-25T10:16:07.461Z,30.68
2019-04-25T10:18:39.222Z,24.02
2019-04-25T10:21:11.395Z,26.30
2019-04-25T10:23:44.088Z,23.10
2019-04-25T10:26:16.539Z,23.38
2019-04-25T10:28:47.861Z,21.45
2019-04-25T10:31:19.126Z,21.48
2019-04-25T10:33:50.383Z,20.92
2019-04-25T10:36:23.264Z,19.55
2019-04-25T10:39:07.229Z,16.45
2019-04-25T10:41:29.442Z,20.10
2019-04-25T10:44:03.335Z,18.45
2019-04-25T10:46:34.594Z,19.27
2019-04-25T10:49:05.803Z,25.48
2019-04-25T10:51:37.384Z,19.30
2019-04-25T10:54:08.730Z,22.35
2019-04-25T10:56:40.138Z,22.70
2019-04-25T10:59:11.263Z,22.37
2019-04-25T11:01:44.687Z,19.35
2019-04-25T11:04:17.293Z,23.38
2019-04-25T11:06:49.319Z,22.52
2019-04-25T11:09:25.324Z,22.90
2019-04-25T11:11:56.375Z,22.98
2019-04-25T11:14:28.121Z,22.75
2019-04-25T11:16:59.617Z,21.90
2019-04-25T11:19:31.221Z,25.48
2019-04-25T11:22:03.985Z,27.05
2019-04-25T11:24:36.717Z,21.68
2019-04-25T11:27:08.134Z,22.07
2019-04-25T11:29:39.270Z,23.67
2019-04-25T11:32:10.514Z,17.12
2019-04-25T11:34:43.151Z,17.62
2019-04-25T11:37:14.775Z,18.57
2019-04-25T11:39:48.046Z,26.97
2019-04-25T11:42:19.623Z,17.17
2019-04-25T11:44:51.146Z,19.77
2019-04-25T11:47:24.179Z,20.77
2019-04-25T11:49:55.770Z,26.52
2019-04-25T11:52:30.139Z,28.80
2019-04-25T11:55:00.055Z,26.57
2019-04-25T11:57:31.419Z,24.10
2019-04-25T12:00:04.280Z,29.67
2019-04-25T12:02:36.503Z,22.57
2019-04-25T12:05:08.035Z,17.62
2019-04-25T12:07:39.623Z,22.27
2019-04-25T12:10:11.180Z,22.98
2019-04-25T12:12:43.310Z,21.87
2019-04-25T12:15:15.219Z,25.37
2019-04-25T12:17:47.445Z,23.15
2019-04-25T12:20:18.722Z,20.23
2019-04-25T12:22:51.641Z,45.88
2019-04-25T12:25:23.740Z,25.52
2019-04-25T12:27:55.222Z,20.25
2019-04-25T12:30:37.101Z,22.48
2019-04-25T12:32:59.345Z,19.07
2019-04-25T12:35:30.904Z,22.98
2019-04-25T12:38:03.413Z,21.55
2019-04-25T12:40:34.724Z,21.77
2019-04-25T12:43:06.043Z,20.48
2019-04-25T12:45:38.747Z,23.38
2019-04-25T12:48:11.641Z,17.87
2019-04-25T12:50:43.962Z,23.65
2019-04-25T12:53:15.433Z,20.80
2019-04-25T12:55:47.486Z,21.20
2019-04-25T12:58:18.867Z,20.68
2019-04-25T13:00:54.214Z,25.20
2019-04-25T13:03:24.225Z,19.62
2019-04-25T13:05:56.494Z,20.37
2019-04-25T13:08:27.629Z,16.85
2019-04-25T13:11:07.948Z,21.35
2019-04-25T13:13:33.757Z,17.50
2019-04-25T13:16:05.512Z,23.70
2019-04-25T13:18:38.246Z,20.02
2019-04-25T13:21:09.815Z,20.17
2019-04-25T13:23:44.251Z,26.23
2019-04-25T13:26:17.257Z,29.00
2019-04-25T13:29:05.547Z,23.37
2019-04-25T13:31:41.544Z,26.75
2019-04-25T13:34:14.903Z,26.25
2019-04-25T13:36:46.261Z,20.97
2019-04-25T13:39:19.027Z,20.50
2019-04-25T13:41:50.254Z,24.47
2019-04-25T13:44:21.456Z,19.67
2019-04-25T13:46:53.327Z,16.20
2019-04-25T13:49:25.031Z,20.82
2019-04-25T13:51:57.227Z,23.20
2019-04-25T13:54:28.846Z,26.27
2019-04-25T13:57:00.524Z,20.92
2019-04-25T13:59:32.609Z,20.45
2019-04-25T14:02:06.278Z,23.45
2019-04-25T14:04:37.841Z,18.73
2019-04-25T14:07:09.207Z,34.75
2019-04-25T14:09:40.919Z,24.98
2019-04-25T14:12:13.995Z,25.30
2019-04-25T14:14:45.757Z,21.40
2019-04-25T14:17:18.974Z,22.22
2019-04-25T14:20:07.122Z,19.80
2019-04-25T14:22:39.230Z,25.80
2019-04-25T14:25:10.409Z,19.70
2019-04-25T14:27:43.402Z,22.05
2019-04-25T14:30:17.328Z,16.80
2019-04-25T14:35:19.624Z,23.85
2019-04-25T14:37:51.260Z,28.02
2019-04-25T14:40:24.706Z,26.27
2019-04-25T14:42:56.423Z,30.27
2019-04-25T14:45:40.327Z,23.67
2019-04-25T14:48:01.273Z,28.73
2019-04-25T14:50:32.815Z,34.05
2019-04-25T14:53:04.475Z,27.17
2019-04-25T14:55:49.011Z,22.95
2019-04-25T14:58:20.678Z,24.67
2019-04-25T15:00:52.438Z,28.65
2019-04-25T15:03:24.133Z,22.20
2019-04-25T15:05:55.754Z,21.70
2019-04-25T15:08:28.508Z,24.77
2019-04-25T15:10:59.894Z,26.75
2019-04-25T15:13:33.067Z,22.48
2019-04-25T15:16:04.948Z,30.30
2019-04-25T15:18:46.117Z,23.57
2019-04-25T15:21:09.239Z,24.80
2019-04-25T15:23:40.921Z,29.95
2019-04-25T15:26:12.738Z,24.52
2019-04-25T15:28:44.297Z,35.60
2019-04-25T15:31:16.914Z,34.60
2019-04-25T15:33:48.566Z,39.10
2019-04-25T15:36:27.297Z,42.10
2019-04-25T15:39:00.469Z,38.90
2019-04-25T15:44:26.655Z,47.58
2019-04-25T15:46:59.509Z,43.70
2019-04-25T15:49:31.264Z,43.38
2019-04-25T15:52:02.517Z,43.80
2019-04-25T15:54:33.939Z,48.73
2019-04-25T15:57:05.833Z,56.30
2019-04-25T15:59:37.477Z,46.60
2019-04-25T16:02:10.472Z,60.20
2019-04-25T16:04:42.113Z,49.08
2019-04-25T16:07:13.465Z,56.68
2019-04-25T16:09:44.856Z,56.55
2019-04-25T16:12:16.547Z,56.40
2019-04-25T16:14:48.701Z,58.98
2019-04-25T16:17:20.186Z,68.05
2019-04-25T16:19:52.868Z,56.30
2019-04-25T16:22:25.478Z,74.27
2019-04-25T16:24:57.268Z,55.63
2019-04-25T16:27:28.979Z,61.30
2019-04-25T16:30:00.224Z,69.20
2019-04-25T16:32:32.439Z,57.30
2019-04-25T16:35:05.476Z,55.23
2019-04-25T16:37:36.895Z,54.20
2019-04-25T16:40:08.254Z,64.75
2019-04-25T16:42:40.013Z,67.45
2019-04-25T16:45:11.978Z,67.30
2019-04-25T16:47:43.143Z,64.85
2019-04-25T16:50:15.559Z,70.22
2019-04-25T16:52:46.634Z,80.92
2019-04-25T16:55:18.491Z,96.67
2019-04-25T16:57:49.834Z,100.87
2019-04-25T17:00:23.029Z,84.05
2019-04-25T17:02:54.557Z,98.12
2019-04-25T17:05:27.283Z,78.10
2019-04-25T17:07:58.392Z,87.80
2019-04-25T17:10:31.457Z,79.90
2019-04-25T17:13:02.842Z,80.40
2019-04-25T17:15:42.081Z,88.67
2019-04-25T17:18:15.543Z,86.53
2019-04-25T17:20:57.391Z,70.62
2019-04-25T17:23:29.011Z,66.82
2019-04-25T17:26:00.707Z,68.57
2019-04-25T17:28:34.894Z,69.70
2019-04-25T17:31:07.703Z,61.02
2019-04-25T17:33:52.751Z,69.40
2019-04-25T17:36:28.893Z,60.17
2019-04-25T17:39:01.775Z,71.97
2019-04-25T17:41:34.660Z,62.88
2019-04-25T17:44:06.450Z,52.35
2019-04-25T17:46:38.020Z,47.45
2019-04-25T17:49:09.728Z,53.48
2019-04-25T17:51:41.970Z,46.37
2019-04-25T17:54:13.273Z,53.80
2019-04-25T17:56:44.903Z,39.55
2019-04-25T17:59:16.351Z,45.17
2019-04-25T18:01:47.979Z,40.48
2019-04-25T18:04:19.347Z,48.42
2019-04-25T18:06:50.902Z,50.43
2019-04-25T18:09:22.667Z,40.52
2019-04-25T18:11:54.313Z,42.45
2019-04-25T18:14:25.872Z,36.00
2019-04-25T18:16:57.314Z,49.38
2019-04-25T18:19:48.732Z,41.45
2019-04-25T18:22:37.151Z,48.83
2019-04-25T18:25:13.103Z,51.37
2019-04-25T18:27:46.455Z,54.42
2019-04-25T18:30:18.133Z,45.88
2019-04-25T18:32:57.358Z,47.35
2019-04-25T18:35:30.403Z,40.75
2019-04-25T18:38:03.699Z,38.92
2019-04-25T18:40:39.854Z,44.48
2019-04-25T18:43:19.053Z,44.95
2019-04-25T18:45:55.262Z,47.83
2019-04-25T18:48:29.391Z,43.02
2019-04-25T18:51:04.449Z,44.40
2019-04-25T18:53:48.131Z,46.75
2019-04-25T18:56:24.296Z,48.95
2019-04-25T18:59:12.333Z,51.55
2019-04-25T19:02:03.440Z,46.88
2019-04-25T19:04:52.212Z,52.88
2019-04-25T19:07:29.899Z,59.25
2019-04-25T19:10:04.624Z,45.10
2019-04-25T19:12:40.205Z,50.45
2019-04-25T19:15:22.712Z,49.83
2019-04-25T19:18:12.329Z,46.40
2019-04-25T19:20:46.493Z,50.45
2019-04-25T19:23:29.401Z,47.23
2019-04-25T19:26:04.940Z,48.70
2019-04-25T19:28:48.109Z,53.35
2019-04-25T19:31:20.867Z,50.08
2019-04-25T19:33:52.989Z,46.02
2019-04-25T19:36:31.170Z,46.20
2019-04-25T19:39:02.751Z,44.45
2019-04-25T19:41:38.821Z,48.85
2019-04-25T19:46:49.542Z,38.05
2019-04-25T19:49:22.079Z,45.63
2019-04-25T19:51:56.272Z,53.60
2019-04-25T19:54:27.850Z,45.83
2019-04-25T19:57:00.421Z,46.20
2019-04-25T19:59:36.090Z,47.85
2019-04-25T20:02:09.883Z,37.70
2019-04-25T20:05:02.219Z,42.75
2019-04-25T20:07:36.986Z,46.77
2019-04-25T20:10:26.095Z,36.05
2019-04-25T20:12:59.917Z,41.75
2019-04-25T20:15:36.691Z,42.95
2019-04-25T20:18:10.289Z,47.15
2019-04-25T20:20:41.391Z,44.15
2019-04-25T20:23:14.521Z,41.92
2019-04-25T20:28:23.438Z,51.37
2019-04-25T20:30:55.169Z,43.25
2019-04-25T20:33:35.582Z,43.70
2019-04-25T20:36:17.211Z,47.20
2019-04-25T20:38:40.380Z,36.20
2019-04-25T20:41:22.991Z,44.30
2019-04-25T20:43:56.969Z,37.35
2019-04-25T20:46:30.853Z,47.58
2019-04-25T20:49:05.404Z,40.63
2019-04-25T20:51:37.032Z,41.28
2019-04-25T20:54:15.857Z,36.85
2019-04-25T20:56:49.763Z,36.73
2019-04-25T20:59:40.354Z,37.75
2019-04-25T21:02:14.840Z,37.15
2019-04-25T21:04:48.922Z,38.23
2019-04-25T21:07:22.288Z,35.45
2019-04-25T21:09:53.837Z,44.18
2019-04-25T21:12:26.479Z,41.77
2019-04-25T21:15:04.315Z,46.92
2019-04-25T21:17:58.374Z,42.83
2019-04-25T21:20:29.858Z,47.85
2019-04-25T21:23:02.219Z,41.80
2019-04-25T21:25:34.539Z,47.58
2019-04-25T21:28:06.077Z,42.08
2019-04-25T21:30:38.925Z,50.20
2019-04-25T21:33:13.644Z,45.20
2019-04-25T21:35:46.020Z,47.00
2019-04-25T21:38:17.879Z,45.10
2019-04-25T21:40:53.953Z,52.05
2019-04-25T21:43:31.528Z,52.10
2019-04-25T21:46:06.151Z,64.32
2019-04-25T21:48:37.602Z,52.40
2019-04-25T21:51:26.768Z,57.88
2019-04-25T21:54:07.127Z,65.20
2019-04-25T21:56:42.763Z,71.90
2019-04-25T21:59:15.561Z,66.65
2019-04-25T22:01:48.645Z,56.98
2019-04-25T22:04:20.913Z,70.32
2019-04-25T22:06:52.771Z,73.72
2019-04-25T22:09:26.317Z,73.37
2019-04-25T22:11:59.324Z,78.30
2019-04-25T22:14:31.016Z,76.50
2019-04-25T22:17:03.884Z,80.55
2019-04-25T22:19:37.412Z,75.37
2019-04-25T22:22:13.558Z,70.47
2019-04-25T22:24:44.699Z,57.62
2019-04-25T22:27:17.891Z,55.95
2019-04-25T22:29:50.982Z,58.48
2019-04-25T22:32:25.223Z,57.98
2019-04-25T22:35:08.947Z,53.23
2019-04-25T22:37:40.613Z,59.88
2019-04-25T22:40:12.187Z,64.92
2019-04-25T22:42:43.595Z,58.00
2019-04-25T22:45:15.348Z,55.83
2019-04-25T22:47:48.242Z,49.13
2019-04-25T22:50:21.725Z,49.60
2019-04-25T22:52:55.848Z,51.08
2019-04-25T22:55:27.093Z,47.67
2019-04-25T22:58:01.219Z,42.53
2019-04-25T23:00:37.567Z,38.05
2019-04-25T23:03:20.174Z,47.70
2019-04-25T23:05:54.190Z,41.02
2019-04-25T23:08:25.839Z,41.85
2019-04-25T23:10:57.187Z,31.70
2019-04-25T23:13:28.838Z,42.10
2019-04-25T23:16:00.397Z,38.02
2019-04-25T23:18:31.815Z,37.85
2019-04-25T23:21:04.009Z,35.63
2019-04-25T23:23:41.914Z,37.90
2019-04-25T23:26:22.067Z,30.72
2019-04-25T23:28:55.399Z,32.75
2019-04-25T23:31:31.639Z,33.20
2019-04-25T23:34:04.528Z,29.65
2019-04-25T23:36:37.164Z,31.30
2019-04-25T23:39:14.400Z,30.52
2019-04-25T23:41:47.248Z,32.63
2019-04-25T23:44:19.623Z,34.65
2019-04-25T23:46:51.508Z,33.98
2019-04-25T23:49:23.037Z,29.57
2019-04-25T23:51:54.381Z,28.90
2019-04-25T23:54:26.044Z,37.20
2019-04-25T23:56:58.343Z,31.33
2019-04-25T23:59:29.934Z,35.30
